Time;durP1;ratioP1;P1;durP2;ratioP2;P2;SDS_P1;SDS_P2;PMS_P1;PMS_P2;Temp;Humidity;BMP_temperature;BMP_pressure;BME280_temperature;BME280_humidity;BME280_pressure;Samples;Min_cycle;Max_cycle;Signal;HPM_P1;HPM_P2
2021/01/07 00:00:42;;;;;;;118.03;62.22;;;;;;;;;;5057329;28;20025;-78
2021/01/07 00:03:08;;;;;;;111.20;59.67;;;;;;;;;;5057500;28;20443;-79
2021/01/07 00:05:34;;;;;;;89.30;51.90;;;;;;;;;;5056124;28;20120;-78
2021/01/07 00:08:00;;;;;;;97.18;51.25;;;;;;;;;;5057081;28;20075;-78
2021/01/07 00:10:26;;;;;;;85.53;47.47;;;;;;;;;;5057214;28;20028;-77
2021/01/07 00:12:53;;;;;;;82.75;48.65;;;;;;;;;;5057203;28;20115;-77
2021/01/07 00:15:19;;;;;;;95.20;51.63;;;;;;;;;;5057092;28;20048;-78
2021/01/07 00:17:45;;;;;;;85.97;48.65;;;;;;;;;;5057394;28;20040;-78
2021/01/07 00:20:13;;;;;;;97.80;51.25;;;;;;;;;;5056951;28;20113;-78
2021/01/07 00:22:40;;;;;;;112.45;57.20;;;;;;;;;;5057088;28;20021;-78
2021/01/07 00:25:06;;;;;;;96.47;51.05;;;;;;;;;;5057110;28;20041;-77
2021/01/07 00:27:33;;;;;;;85.53;41.00;;;;;;;;;;5057022;28;20457;-78
2021/01/07 00:29:59;;;;;;;54.25;29.05;;;;;;;;;;5057242;28;20021;-78
2021/01/07 00:32:25;;;;;;;37.30;20.75;;;;;;;;;;5057071;28;20051;-78
2021/01/07 00:34:52;;;;;;;32.83;19.63;;;;;;;;;;5055984;28;20330;-78
2021/01/07 00:37:18;;;;;;;31.48;19.25;;;;;;;;;;5057089;28;20021;-80
2021/01/07 00:39:44;;;;;;;29.95;16.83;;;;;;;;;;5056925;28;20113;-77
2021/01/07 00:42:10;;;;;;;28.63;17.15;;;;;;;;;;5056896;28;20319;-78
2021/01/07 00:44:36;;;;;;;29.67;18.00;;;;;;;;;;5057220;28;20025;-78
2021/01/07 00:47:02;;;;;;;41.67;20.30;;;;;;;;;;5056803;28;20040;-78
2021/01/07 00:49:28;;;;;;;54.13;24.85;;;;;;;;;;5056457;28;20025;-78
2021/01/07 00:51:54;;;;;;;65.78;29.00;;;;;;;;;;5056807;28;20024;-78
2021/01/07 00:54:24;;;;;;;48.35;24.88;;;;;;;;;;5056535;28;20427;-78
2021/01/07 00:56:50;;;;;;;48.42;26.75;;;;;;;;;;5056999;28;20025;-78
2021/01/07 00:59:16;;;;;;;59.05;31.60;;;;;;;;;;5056393;28;20032;-77
2021/01/07 01:01:45;;;;;;;63.10;32.42;;;;;;;;;;5056482;28;20032;-77
2021/01/07 01:04:12;;;;;;;67.10;36.50;;;;;;;;;;5056707;28;20032;-78
2021/01/07 01:06:38;;;;;;;49.70;27.92;;;;;;;;;;5056637;28;20056;-77
2021/01/07 01:09:09;;;;;;;46.85;26.05;;;;;;;;;;5056564;28;20319;-78
2021/01/07 01:11:47;;;;;;;48.65;26.25;;;;;;;;;;5056624;28;20021;-78
2021/01/07 01:14:14;;;;;;;48.65;27.38;;;;;;;;;;5055459;28;20028;-78
2021/01/07 01:16:40;;;;;;;44.45;23.77;;;;;;;;;;5056840;28;20025;-78
2021/01/07 01:19:06;;;;;;;36.92;21.42;;;;;;;;;;5058664;28;20025;-78
2021/01/07 01:21:33;;;;;;;38.17;20.40;;;;;;;;;;5060248;28;20025;-77
2021/01/07 01:23:59;;;;;;;32.50;19.58;;;;;;;;;;5060242;28;20325;-78
2021/01/07 01:26:25;;;;;;;32.55;19.92;;;;;;;;;;5060332;28;20047;-78
2021/01/07 01:28:51;;;;;;;30.70;18.05;;;;;;;;;;5059351;28;20021;-78
2021/01/07 01:31:18;;;;;;;26.42;16.40;;;;;;;;;;5060212;28;20036;-78
2021/01/07 01:33:44;;;;;;;26.92;16.52;;;;;;;;;;5060108;28;20438;-78
2021/01/07 01:36:10;;;;;;;26.33;15.02;;;;;;;;;;5060132;28;20407;-78
2021/01/07 01:38:36;;;;;;;25.20;14.57;;;;;;;;;;5060091;28;20039;-78
2021/01/07 01:41:03;;;;;;;23.58;14.07;;;;;;;;;;5060224;28;20033;-78
2021/01/07 01:43:29;;;;;;;28.10;14.93;;;;;;;;;;5060292;28;20088;-78
2021/01/07 01:45:56;;;;;;;23.45;13.75;;;;;;;;;;5058543;28;20037;-78
2021/01/07 01:48:22;;;;;;;22.52;12.45;;;;;;;;;;5058903;28;20032;-77
2021/01/07 01:50:48;;;;;;;16.92;11.18;;;;;;;;;;5059807;28;20025;-77
2021/01/07 01:53:14;;;;;;;18.02;9.80;;;;;;;;;;5059829;28;20025;-77
2021/01/07 01:55:41;;;;;;;17.13;10.52;;;;;;;;;;5059868;28;20033;-77
2021/01/07 01:58:10;;;;;;;16.35;10.50;;;;;;;;;;5059781;28;20020;-78
2021/01/07 02:00:36;;;;;;;16.30;9.93;;;;;;;;;;5059587;28;20052;-78
2021/01/07 02:03:05;;;;;;;15.38;8.85;;;;;;;;;;5059464;28;20033;-78
2021/01/07 02:05:31;;;;;;;10.30;7.35;;;;;;;;;;5059574;28;20031;-77
2021/01/07 02:07:57;;;;;;;15.38;9.48;;;;;;;;;;5058349;28;20056;-78
2021/01/07 02:10:23;;;;;;;17.73;9.77;;;;;;;;;;5059477;28;20418;-78
2021/01/07 02:12:49;;;;;;;15.68;8.95;;;;;;;;;;5059597;28;20028;-77
2021/01/07 02:15:15;;;;;;;18.85;9.18;;;;;;;;;;5059537;28;20032;-78
2021/01/07 02:17:41;;;;;;;17.40;9.30;;;;;;;;;;5059525;28;20104;-78
2021/01/07 02:20:11;;;;;;;14.93;8.60;;;;;;;;;;5059380;28;20021;-77
2021/01/07 02:22:37;;;;;;;11.85;6.72;;;;;;;;;;5058911;28;20036;-78
2021/01/07 02:25:03;;;;;;;14.70;7.47;;;;;;;;;;5059621;28;20025;-78
2021/01/07 02:27:29;;;;;;;13.98;8.18;;;;;;;;;;5059303;28;20021;-78
2021/01/07 02:29:55;;;;;;;14.05;7.65;;;;;;;;;;5057945;28;20432;-78
2021/01/07 02:32:21;;;;;;;18.00;8.95;;;;;;;;;;5059471;28;20308;-78
2021/01/07 02:34:47;;;;;;;20.17;9.27;;;;;;;;;;5059053;28;20033;-78
2021/01/07 02:37:14;;;;;;;20.30;8.30;;;;;;;;;;5059083;28;20029;-78
2021/01/07 02:39:40;;;;;;;14.68;7.80;;;;;;;;;;5059124;28;20071;-78
2021/01/07 02:42:06;;;;;;;14.68;8.30;;;;;;;;;;5058748;28;20116;-78
2021/01/07 02:44:32;;;;;;;13.05;8.52;;;;;;;;;;5059137;28;20104;-79
2021/01/07 02:46:58;;;;;;;14.50;7.45;;;;;;;;;;5059012;28;20025;-78
2021/01/07 02:49:24;;;;;;;12.77;7.32;;;;;;;;;;5058780;28;20028;-78
2021/01/07 02:51:50;;;;;;;14.68;7.15;;;;;;;;;;5058641;28;20112;-78
2021/01/07 02:54:16;;;;;;;12.98;6.53;;;;;;;;;;5058661;28;20055;-78
2021/01/07 02:56:42;;;;;;;10.15;6.68;;;;;;;;;;5058878;28;20055;-78
2021/01/07 02:59:08;;;;;;;10.88;6.65;;;;;;;;;;5058901;28;20031;-78
2021/01/07 03:01:34;;;;;;;13.18;7.75;;;;;;;;;;5058607;28;20036;-78
2021/01/07 03:04:01;;;;;;;14.93;9.30;;;;;;;;;;5058452;28;20063;-78
2021/01/07 03:06:27;;;;;;;18.38;11.65;;;;;;;;;;5058216;28;20118;-78
2021/01/07 03:08:53;;;;;;;24.83;14.25;;;;;;;;;;5058445;28;20029;-79
2021/01/07 03:11:19;;;;;;;25.27;15.02;;;;;;;;;;5058405;28;20446;-78
2021/01/07 03:13:46;;;;;;;31.05;17.52;;;;;;;;;;5058491;28;20024;-78
2021/01/07 03:16:12;;;;;;;31.85;18.65;;;;;;;;;;5058428;28;20029;-78
2021/01/07 03:18:38;;;;;;;41.63;23.13;;;;;;;;;;5058469;28;20352;-78
2021/01/07 03:21:04;;;;;;;37.60;22.55;;;;;;;;;;5058108;28;20025;-78
2021/01/07 03:23:30;;;;;;;41.00;22.83;;;;;;;;;;5058072;28;20021;-78
2021/01/07 03:25:56;;;;;;;44.25;24.10;;;;;;;;;;5058040;28;20350;-78
2021/01/07 03:28:23;;;;;;;45.63;24.23;;;;;;;;;;5058112;28;20017;-79
2021/01/07 03:30:49;;;;;;;39.25;22.95;;;;;;;;;;5057016;28;20123;-78
2021/01/07 03:33:15;;;;;;;38.88;22.42;;;;;;;;;;5058129;28;20330;-79
2021/01/07 03:35:41;;;;;;;41.83;22.67;;;;;;;;;;5057842;28;20416;-78
2021/01/07 03:38:07;;;;;;;35.75;21.92;;;;;;;;;;5057892;28;20058;-78
2021/01/07 03:40:33;;;;;;;44.35;24.83;;;;;;;;;;5057462;28;20060;-79
2021/01/07 03:42:59;;;;;;;54.25;30.48;;;;;;;;;;5057476;28;20289;-79
2021/01/07 03:45:25;;;;;;;52.15;30.65;;;;;;;;;;5057724;28;20471;-79
2021/01/07 03:47:51;;;;;;;48.00;26.67;;;;;;;;;;5057847;28;20031;-79
2021/01/07 03:50:17;;;;;;;42.00;25.90;;;;;;;;;;5056526;28;20104;-79
2021/01/07 03:52:43;;;;;;;39.90;24.17;;;;;;;;;;5057641;28;20045;-80
2021/01/07 03:55:09;;;;;;;34.97;21.88;;;;;;;;;;5056231;28;20025;-79
2021/01/07 03:57:35;;;;;;;35.67;21.85;;;;;;;;;;5057766;28;20086;-79
2021/01/07 04:00:01;;;;;;;36.55;21.98;;;;;;;;;;5057752;28;20021;-79
2021/01/07 04:02:28;;;;;;;39.30;23.85;;;;;;;;;;5057186;28;20047;-79
2021/01/07 04:04:54;;;;;;;45.13;26.20;;;;;;;;;;5057493;28;20032;-79
2021/01/07 04:07:20;;;;;;;44.38;29.10;;;;;;;;;;5056234;28;20037;-79
2021/01/07 04:09:46;;;;;;;50.42;31.05;;;;;;;;;;5057466;28;20423;-78
2021/01/07 04:12:12;;;;;;;40.10;26.58;;;;;;;;;;5057255;28;20025;-77
2021/01/07 04:14:38;;;;;;;38.90;24.70;;;;;;;;;;5057189;28;20048;-78
2021/01/07 04:17:04;;;;;;;36.63;23.95;;;;;;;;;;5057211;28;20029;-78
2021/01/07 04:19:30;;;;;;;42.80;27.70;;;;;;;;;;5057216;28;20036;-78
2021/01/07 04:21:56;;;;;;;45.03;30.67;;;;;;;;;;5057037;28;20357;-78
2021/01/07 04:24:22;;;;;;;47.92;31.60;;;;;;;;;;5057059;28;20100;-78
2021/01/07 04:26:48;;;;;;;43.55;30.17;;;;;;;;;;5057060;28;20394;-78
2021/01/07 04:29:14;;;;;;;41.35;28.98;;;;;;;;;;5057055;28;20052;-79
2021/01/07 04:31:40;;;;;;;44.05;30.23;;;;;;;;;;5057091;28;20029;-78
2021/01/07 04:34:07;;;;;;;59.80;37.28;;;;;;;;;;5057092;28;20033;-78
2021/01/07 04:36:33;;;;;;;53.00;34.90;;;;;;;;;;5055923;28;20446;-78
2021/01/07 04:38:59;;;;;;;54.78;35.67;;;;;;;;;;5056126;28;20408;-78
2021/01/07 04:41:25;;;;;;;54.25;37.45;;;;;;;;;;5056802;28;20025;-78
2021/01/07 04:43:58;;;;;;;57.70;38.30;;;;;;;;;;5057166;28;20044;-79
2021/01/07 04:46:24;;;;;;;53.28;34.72;;;;;;;;;;5056768;28;20025;-79
2021/01/07 04:48:51;;;;;;;48.97;32.80;;;;;;;;;;5056932;28;20407;-79
2021/01/07 04:51:17;;;;;;;57.53;35.60;;;;;;;;;;5056564;28;20095;-78
2021/01/07 04:53:44;;;;;;;78.10;43.45;;;;;;;;;;5059681;28;20029;-78
2021/01/07 04:56:10;;;;;;;94.20;46.83;;;;;;;;;;5060977;28;20028;-78
2021/01/07 04:58:37;;;;;;;102.55;46.95;;;;;;;;;;5061187;28;20025;-78
2021/01/07 05:01:03;;;;;;;119.13;54.72;;;;;;;;;;5060290;28;20359;-78
2021/01/07 05:03:33;;;;;;;111.78;54.83;;;;;;;;;;5059777;28;20112;-78
2021/01/07 05:05:59;;;;;;;80.43;44.35;;;;;;;;;;5060544;28;20025;-77
2021/01/07 05:08:25;;;;;;;67.88;39.58;;;;;;;;;;5060685;28;20481;-78
2021/01/07 05:10:52;;;;;;;54.97;35.03;;;;;;;;;;5060867;28;20403;-78
2021/01/07 05:13:18;;;;;;;47.70;31.00;;;;;;;;;;5060941;28;20051;-78
2021/01/07 05:15:45;;;;;;;43.72;27.90;;;;;;;;;;5060714;28;20028;-78
2021/01/07 05:18:11;;;;;;;41.55;29.20;;;;;;;;;;5060701;28;20033;-78
2021/01/07 05:20:38;;;;;;;44.63;28.42;;;;;;;;;;5060359;28;20032;-78
2021/01/07 05:23:04;;;;;;;42.65;29.15;;;;;;;;;;5060564;28;20021;-78
2021/01/07 05:25:31;;;;;;;48.15;32.08;;;;;;;;;;5059391;28;20033;-78
2021/01/07 05:28:00;;;;;;;51.90;32.50;;;;;;;;;;5059507;28;20036;-78
2021/01/07 05:30:27;;;;;;;66.65;37.45;;;;;;;;;;5060435;28;20021;-78
2021/01/07 05:32:58;;;;;;;66.03;39.83;;;;;;;;;;5060517;28;20021;-78
2021/01/07 05:35:24;;;;;;;67.40;43.88;;;;;;;;;;5060289;28;20056;-78
2021/01/07 05:37:50;;;;;;;51.67;36.25;;;;;;;;;;5059133;28;20028;-78
2021/01/07 05:40:16;;;;;;;45.70;31.25;;;;;;;;;;5059972;28;20043;-79
2021/01/07 05:42:44;;;;;;;47.13;31.90;;;;;;;;;;5060083;28;20021;-79
2021/01/07 05:45:11;;;;;;;50.22;34.53;;;;;;;;;;5060059;28;20027;-79
2021/01/07 05:47:38;;;;;;;48.90;35.15;;;;;;;;;;5058909;28;20021;-78
2021/01/07 05:50:05;;;;;;;47.22;33.90;;;;;;;;;;5058813;28;20021;-78
2021/01/07 05:52:32;;;;;;;46.28;31.58;;;;;;;;;;5059871;28;20029;-78
2021/01/07 05:54:59;;;;;;;44.75;31.80;;;;;;;;;;5058810;28;20029;-78
2021/01/07 05:57:25;;;;;;;48.55;32.20;;;;;;;;;;5059717;28;20025;-78
2021/01/07 05:59:51;;;;;;;48.88;32.50;;;;;;;;;;5058639;28;20131;-78
2021/01/07 06:02:18;;;;;;;56.17;35.72;;;;;;;;;;5059848;28;20108;-78
2021/01/07 06:04:45;;;;;;;57.63;36.72;;;;;;;;;;5059474;28;20444;-78
2021/01/07 06:07:12;;;;;;;60.40;39.58;;;;;;;;;;5059469;28;20072;-78
2021/01/07 06:09:39;;;;;;;67.85;41.20;;;;;;;;;;5059774;28;20021;-77
2021/01/07 06:12:07;;;;;;;60.13;38.58;;;;;;;;;;5059796;28;20028;-78
2021/01/07 06:14:33;;;;;;;56.95;38.92;;;;;;;;;;5059529;28;20438;-78
2021/01/07 06:17:00;;;;;;;100.95;58.50;;;;;;;;;;5059583;28;20044;-78
2021/01/07 06:19:29;;;;;;;117.65;68.30;;;;;;;;;;5059348;28;20545;-78
2021/01/07 06:21:55;;;;;;;109.90;60.88;;;;;;;;;;5059171;28;20116;-78
2021/01/07 06:24:26;;;;;;;85.10;49.47;;;;;;;;;;5059255;28;20017;-78
2021/01/07 06:26:52;;;;;;;73.90;43.72;;;;;;;;;;5059491;28;20047;-78
2021/01/07 06:29:18;;;;;;;57.53;35.20;;;;;;;;;;5059374;28;20049;-78
2021/01/07 06:31:44;;;;;;;50.65;31.33;;;;;;;;;;5059347;28;20067;-79
2021/01/07 06:34:13;;;;;;;46.80;29.00;;;;;;;;;;5059152;28;20463;-79
2021/01/07 06:36:39;;;;;;;46.92;30.77;;;;;;;;;;5059249;28;20029;-78
2021/01/07 06:39:06;;;;;;;59.28;35.40;;;;;;;;;;5059035;28;20036;-78
2021/01/07 06:41:33;;;;;;;68.90;38.58;;;;;;;;;;5058982;28;20025;-79
2021/01/07 06:43:59;;;;;;;65.30;36.05;;;;;;;;;;5059323;28;20101;-79
2021/01/07 06:46:37;;;;;;;72.93;38.60;;;;;;;;;;5059142;28;20426;-79
2021/01/07 06:49:23;;;;;;;69.55;39.17;;;;;;;;;;5059134;28;20025;-79
2021/01/07 06:52:07;;;;;;;61.03;34.80;;;;;;;;;;5058760;28;20296;-79
2021/01/07 06:54:35;;;;;;;70.07;37.58;;;;;;;;;;5058674;28;20331;-80
2021/01/07 06:57:02;;;;;;;82.03;44.38;;;;;;;;;;5058891;28;20029;-80
2021/01/07 06:59:28;;;;;;;69.07;37.85;;;;;;;;;;5058928;28;20296;-80
2021/01/07 07:01:56;;;;;;;70.40;38.30;;;;;;;;;;5057455;28;20327;-80
2021/01/07 07:04:26;;;;;;;79.25;41.60;;;;;;;;;;5058801;28;20021;-80
2021/01/07 07:07:00;;;;;;;103.95;51.65;;;;;;;;;;5058670;28;20427;-79
2021/01/07 07:09:26;;;;;;;122.63;57.35;;;;;;;;;;5057525;28;20047;-79
2021/01/07 07:11:53;;;;;;;143.90;65.63;;;;;;;;;;5058438;28;20114;-79
2021/01/07 07:14:20;;;;;;;126.30;63.70;;;;;;;;;;5057293;28;20059;-79
2021/01/07 07:16:48;;;;;;;160.70;73.00;;;;;;;;;;5056497;28;20036;-79
2021/01/07 07:19:24;;;;;;;159.68;74.22;;;;;;;;;;5058425;28;20441;-79
2021/01/07 07:21:58;;;;;;;162.02;73.25;;;;;;;;;;5058112;28;20032;-79
2021/01/07 07:24:34;;;;;;;151.85;66.95;;;;;;;;;;5058373;28;20100;-80
2021/01/07 07:27:04;;;;;;;196.40;66.63;;;;;;;;;;5058215;28;20025;-81
2021/01/07 07:29:33;;;;;;;145.35;57.80;;;;;;;;;;5057100;28;20020;-81
2021/01/07 07:32:00;;;;;;;121.00;50.05;;;;;;;;;;5058046;28;20105;-81
2021/01/07 07:34:32;;;;;;;111.55;49.00;;;;;;;;;;5057070;28;20083;-81
2021/01/07 07:37:01;;;;;;;96.20;43.28;;;;;;;;;;5058000;28;20107;-81
2021/01/07 07:39:27;;;;;;;118.57;65.55;;;;;;;;;;5058076;28;20025;-80
2021/01/07 07:42:10;;;;;;;70.47;36.17;;;;;;;;;;5057865;28;20035;-80
2021/01/07 07:44:36;;;;;;;69.68;35.45;;;;;;;;;;5058162;28;20112;-81
2021/01/07 07:47:02;;;;;;;74.85;36.92;;;;;;;;;;5057935;28;20033;-81
2021/01/07 07:49:28;;;;;;;63.35;35.72;;;;;;;;;;5056767;28;20060;-81
2021/01/07 07:51:54;;;;;;;58.28;32.25;;;;;;;;;;5057843;28;20029;-81
2021/01/07 07:54:20;;;;;;;55.97;31.55;;;;;;;;;;5056336;28;20036;-80
2021/01/07 07:56:47;;;;;;;52.55;30.58;;;;;;;;;;5056657;28;20024;-80
2021/01/07 07:59:13;;;;;;;49.10;28.92;;;;;;;;;;5057553;28;20032;-80
2021/01/07 08:01:40;;;;;;;49.13;28.70;;;;;;;;;;5056363;28;20028;-80
2021/01/07 08:04:26;;;;;;;42.40;24.20;;;;;;;;;;5057775;28;20311;-80
2021/01/07 08:06:52;;;;;;;37.65;23.63;;;;;;;;;;5057590;28;20052;-80
2021/01/07 08:09:20;;;;;;;38.42;23.08;;;;;;;;;;5057386;28;20037;-80
2021/01/07 08:11:47;;;;;;;46.25;25.52;;;;;;;;;;5057146;28;20032;-85
2021/01/07 08:14:16;;;;;;;50.78;25.55;;;;;;;;;;5057702;28;20292;-81
2021/01/07 08:16:42;;;;;;;56.35;30.67;;;;;;;;;;5057443;28;20029;-81
2021/01/07 08:19:18;;;;;;;64.35;33.92;;;;;;;;;;5057348;28;20029;-78
2021/01/07 08:21:46;;;;;;;48.08;28.60;;;;;;;;;;5057104;28;20029;-80
2021/01/07 08:24:12;;;;;;;45.45;28.42;;;;;;;;;;5056130;28;20104;-80
2021/01/07 08:26:39;;;;;;;73.57;45.50;;;;;;;;;;5056983;28;20021;-80
2021/01/07 08:29:08;;;;;;;66.95;38.08;;;;;;;;;;5057303;28;20044;-80
2021/01/07 08:31:35;;;;;;;55.53;30.48;;;;;;;;;;5057198;28;20029;-80
2021/01/07 08:34:03;;;;;;;45.42;27.63;;;;;;;;;;5057156;28;20037;-80
2021/01/07 08:36:31;;;;;;;50.83;28.13;;;;;;;;;;5055956;28;20433;-80
2021/01/07 08:38:57;;;;;;;57.22;28.17;;;;;;;;;;5057297;28;20033;-80
2021/01/07 08:41:23;;;;;;;33.72;20.48;;;;;;;;;;5056772;28;20037;-80
2021/01/07 08:43:53;;;;;;;36.80;22.30;;;;;;;;;;5056023;28;20060;-80
2021/01/07 08:46:20;;;;;;;42.78;26.25;;;;;;;;;;5057072;28;20028;-80
2021/01/07 08:48:58;;;;;;;55.30;31.10;;;;;;;;;;5057010;28;20110;-80
2021/01/07 08:51:24;;;;;;;45.50;25.70;;;;;;;;;;5056968;28;20031;-82
2021/01/07 08:53:54;;;;;;;28.52;17.27;;;;;;;;;;5056041;28;20048;-81
2021/01/07 08:56:33;;;;;;;18.80;11.25;;;;;;;;;;5056991;28;20029;-82
2021/01/07 08:59:18;;;;;;;27.52;17.30;;;;;;;;;;5056941;28;20029;-81
2021/01/07 09:01:44;;;;;;;22.10;14.32;;;;;;;;;;5056918;28;20029;-81
2021/01/07 09:04:22;;;;;;;20.23;11.55;;;;;;;;;;5057180;28;20021;-81
2021/01/07 09:06:58;;;;;;;18.70;12.52;;;;;;;;;;5056871;28;20064;-81
2021/01/07 09:09:24;;;;;;;31.60;17.00;;;;;;;;;;5056698;28;20308;-81
2021/01/07 09:11:50;;;;;;;15.30;10.57;;;;;;;;;;5056716;28;20028;-81
2021/01/07 09:14:17;;;;;;;27.27;17.17;;;;;;;;;;5056732;28;20094;-81
2021/01/07 09:16:58;;;;;;;22.23;13.88;;;;;;;;;;5056882;28;20071;-81
2021/01/07 09:19:24;;;;;;;22.45;15.93;;;;;;;;;;5056923;28;20033;-81
2021/01/07 09:22:03;;;;;;;31.50;21.30;;;;;;;;;;5056776;28;20036;-81
2021/01/07 09:24:36;;;;;;;42.13;28.50;;;;;;;;;;5056734;28;20036;-79
2021/01/07 09:27:09;;;;;;;21.27;15.80;;;;;;;;;;5055521;28;20013;-80
2021/01/07 09:29:35;;;;;;;18.15;11.55;;;;;;;;;;5055588;28;20419;-80
2021/01/07 09:32:01;;;;;;;18.23;10.77;;;;;;;;;;5055434;28;20385;-79
2021/01/07 09:34:28;;;;;;;21.52;13.82;;;;;;;;;;5056413;28;20108;-80
2021/01/07 09:36:54;;;;;;;26.05;15.77;;;;;;;;;;5056751;28;20033;-80
2021/01/07 09:39:21;;;;;;;24.98;14.85;;;;;;;;;;5058345;28;20071;-81
2021/01/07 09:41:47;;;;;;;30.17;18.15;;;;;;;;;;5059020;28;20031;-81
2021/01/07 09:44:13;;;;;;;21.40;14.25;;;;;;;;;;5059954;28;20047;-81
2021/01/07 09:46:39;;;;;;;20.08;13.20;;;;;;;;;;5060169;28;20406;-80
2021/01/07 09:49:05;;;;;;;32.63;21.67;;;;;;;;;;5060146;28;20029;-81
2021/01/07 09:51:32;;;;;;;31.25;19.75;;;;;;;;;;5058871;28;20037;-80
2021/01/07 09:53:58;;;;;;;27.50;18.00;;;;;;;;;;5060091;28;20163;-80
2021/01/07 09:56:24;;;;;;;30.38;19.70;;;;;;;;;;5059950;28;20036;-80
2021/01/07 09:58:50;;;;;;;38.50;23.23;;;;;;;;;;5058527;28;20065;-79
2021/01/07 10:01:19;;;;;;;25.42;16.85;;;;;;;;;;5059775;28;20452;-79
2021/01/07 10:03:45;;;;;;;23.75;15.18;;;;;;;;;;5059954;28;20055;-79
2021/01/07 10:06:11;;;;;;;24.33;15.70;;;;;;;;;;5058788;28;20025;-80
2021/01/07 10:08:37;;;;;;;22.55;13.60;;;;;;;;;;5059627;28;20047;-79
2021/01/07 10:11:04;;;;;;;23.02;13.60;;;;;;;;;;5059677;28;20047;-79
2021/01/07 10:13:31;;;;;;;43.80;20.27;;;;;;;;;;5059617;28;20029;-79
2021/01/07 10:15:57;;;;;;;49.15;21.85;;;;;;;;;;5058574;28;20102;-80
2021/01/07 10:18:23;;;;;;;61.10;25.83;;;;;;;;;;5059731;28;20052;-80
2021/01/07 10:20:49;;;;;;;51.30;25.80;;;;;;;;;;5059397;28;20032;-79
2021/01/07 10:23:17;;;;;;;29.15;16.42;;;;;;;;;;5059588;28;20505;-79
2021/01/07 10:25:44;;;;;;;28.85;17.35;;;;;;;;;;5059208;28;20021;-79
2021/01/07 10:28:10;;;;;;;34.45;19.17;;;;;;;;;;5059628;28;20106;-80
2021/01/07 10:30:37;;;;;;;30.63;17.92;;;;;;;;;;5059470;28;20021;-80
2021/01/07 10:33:03;;;;;;;34.35;19.27;;;;;;;;;;5059328;28;20056;-76
2021/01/07 10:35:29;;;;;;;48.03;24.13;;;;;;;;;;5057941;28;20048;-76
2021/01/07 10:38:02;;;;;;;69.35;32.75;;;;;;;;;;5058141;28;20025;-76
2021/01/07 10:40:31;;;;;;;31.15;18.15;;;;;;;;;;5058915;28;20100;-76
2021/01/07 10:43:00;;;;;;;27.48;17.42;;;;;;;;;;5059078;28;20036;-76
2021/01/07 10:45:27;;;;;;;23.20;15.52;;;;;;;;;;5059071;28;20108;-76
2021/01/07 10:47:58;;;;;;;30.02;17.50;;;;;;;;;;5057984;28;20033;-76
2021/01/07 10:50:27;;;;;;;29.45;16.58;;;;;;;;;;5057709;28;20086;-76
2021/01/07 10:53:12;;;;;;;25.00;15.05;;;;;;;;;;5058861;28;20025;-76
2021/01/07 10:55:39;;;;;;;28.15;17.60;;;;;;;;;;5058990;28;20238;-76
2021/01/07 10:58:20;;;;;;;19.83;13.13;;;;;;;;;;5058977;28;20404;-76
2021/01/07 11:00:49;;;;;;;27.05;16.50;;;;;;;;;;5058893;28;20051;-76
2021/01/07 11:03:36;;;;;;;34.95;19.65;;;;;;;;;;5058761;28;20025;-76
2021/01/07 11:06:02;;;;;;;21.15;13.68;;;;;;;;;;5058569;28;20396;-76
2021/01/07 11:08:38;;;;;;;45.65;18.83;;;;;;;;;;5058416;28;20056;-76
2021/01/07 11:11:20;;;;;;;55.72;24.13;;;;;;;;;;5058568;28;20032;-76
2021/01/07 11:13:50;;;;;;;69.35;28.35;;;;;;;;;;5057366;28;20171;-76
2021/01/07 11:16:23;;;;;;;67.63;27.98;;;;;;;;;;5058334;28;20045;-75
2021/01/07 11:18:49;;;;;;;51.75;27.67;;;;;;;;;;5058558;28;20047;-75
2021/01/07 11:21:24;;;;;;;68.28;36.00;;;;;;;;;;5057033;28;20036;-76
2021/01/07 11:23:51;;;;;;;62.15;34.50;;;;;;;;;;5058106;28;20017;-76
2021/01/07 11:26:18;;;;;;;51.85;28.92;;;;;;;;;;5056924;28;20072;-75
2021/01/07 11:28:44;;;;;;;22.55;15.43;;;;;;;;;;5058171;28;20028;-75
2021/01/07 11:31:13;;;;;;;23.83;14.52;;;;;;;;;;5057783;28;20020;-76
2021/01/07 11:33:40;;;;;;;25.48;18.10;;;;;;;;;;5058061;28;20037;-76
2021/01/07 11:36:09;;;;;;;38.13;21.65;;;;;;;;;;5056919;28;20078;-75
2021/01/07 11:38:39;;;;;;;37.17;25.55;;;;;;;;;;5058086;28;20075;-76
2021/01/07 11:41:34;;;;;;;53.58;36.00;;;;;;;;;;5057888;28;20199;-76
2021/01/07 11:44:13;;;;;;;38.35;22.83;;;;;;;;;;5057889;28;20028;-76
2021/01/07 11:46:41;;;;;;;37.42;21.85;;;;;;;;;;5057876;28;20021;-76
2021/01/07 11:49:08;;;;;;;26.30;15.88;;;;;;;;;;5057851;28;20029;-76
2021/01/07 11:51:34;;;;;;;23.02;15.27;;;;;;;;;;5056686;28;20071;-75
2021/01/07 11:54:02;;;;;;;24.58;13.45;;;;;;;;;;5057605;28;20028;-76
2021/01/07 11:56:29;;;;;;;21.98;14.90;;;;;;;;;;5057880;28;20025;-76
2021/01/07 11:58:59;;;;;;;27.73;16.20;;;;;;;;;;5056206;28;20033;-76
2021/01/07 12:01:26;;;;;;;35.58;18.65;;;;;;;;;;5057122;28;20119;-76
2021/01/07 12:03:52;;;;;;;26.92;14.68;;;;;;;;;;5057588;28;20021;-76
2021/01/07 12:06:22;;;;;;;26.27;14.80;;;;;;;;;;5057247;28;20013;-76
2021/01/07 12:08:51;;;;;;;15.63;9.55;;;;;;;;;;5057565;28;20044;-76
2021/01/07 12:11:21;;;;;;;14.00;9.43;;;;;;;;;;5057472;28;20090;-76
2021/01/07 12:13:51;;;;;;;14.07;8.68;;;;;;;;;;5057388;28;20480;-76
2021/01/07 12:16:25;;;;;;;18.75;9.60;;;;;;;;;;5057281;28;20429;-76
2021/01/07 12:18:51;;;;;;;17.38;9.93;;;;;;;;;;5056226;28;20049;-76
2021/01/07 12:21:20;;;;;;;14.90;9.50;;;;;;;;;;5057082;28;20079;-76
2021/01/07 12:23:47;;;;;;;19.23;12.18;;;;;;;;;;5057182;28;20401;-76
2021/01/07 12:26:14;;;;;;;19.75;12.20;;;;;;;;;;5057152;28;20024;-76
2021/01/07 12:28:41;;;;;;;17.75;10.80;;;;;;;;;;5057257;28;20029;-75
2021/01/07 12:31:08;;;;;;;18.75;11.52;;;;;;;;;;5057191;28;20062;-75
2021/01/07 12:33:37;;;;;;;28.10;16.20;;;;;;;;;;5056919;28;20021;-75
2021/01/07 12:36:05;;;;;;;18.23;11.60;;;;;;;;;;5050587;28;20025;-75
2021/01/07 12:38:49;;;;;;;25.42;15.52;;;;;;;;;;5036989;28;20021;-75
2021/01/07 12:41:26;;;;;;;21.50;14.15;;;;;;;;;;5045088;28;20482;-75
2021/01/07 12:43:56;;;;;;;23.52;14.23;;;;;;;;;;5057153;28;20025;-75
2021/01/07 12:46:24;;;;;;;43.92;18.50;;;;;;;;;;5057086;28;20403;-75
2021/01/07 12:48:51;;;;;;;22.35;12.82;;;;;;;;;;5056830;28;20021;-75
2021/01/07 12:51:18;;;;;;;21.15;11.38;;;;;;;;;;5056949;28;20025;-75
2021/01/07 12:53:44;;;;;;;21.90;13.07;;;;;;;;;;5055820;28;20056;-75
2021/01/07 12:56:15;;;;;;;24.92;12.32;;;;;;;;;;5056944;28;20036;-76
2021/01/07 12:58:42;;;;;;;42.45;17.88;;;;;;;;;;5057105;28;20320;-75
2021/01/07 13:01:18;;;;;;;20.08;12.40;;;;;;;;;;5055543;28;20045;-75
2021/01/07 13:03:55;;;;;;;20.40;10.88;;;;;;;;;;5056967;28;20059;-76
2021/01/07 13:06:26;;;;;;;17.50;9.85;;;;;;;;;;5055415;28;20403;-75
2021/01/07 13:08:55;;;;;;;17.10;9.60;;;;;;;;;;5055552;28;20064;-75
2021/01/07 13:11:22;;;;;;;16.98;10.35;;;;;;;;;;5056776;28;20024;-75
2021/01/07 13:13:51;;;;;;;22.42;12.13;;;;;;;;;;5057522;28;20021;-75
2021/01/07 13:16:17;;;;;;;18.33;10.52;;;;;;;;;;5060663;28;20414;-75
2021/01/07 13:18:48;;;;;;;18.10;10.13;;;;;;;;;;5060617;28;20029;-76
2021/01/07 13:21:14;;;;;;;13.48;7.90;;;;;;;;;;5060507;28;20021;-76
2021/01/07 13:23:40;;;;;;;17.02;9.95;;;;;;;;;;5060570;28;20029;-79
2021/01/07 13:26:07;;;;;;;20.08;11.38;;;;;;;;;;5059374;28;20037;-79
2021/01/07 13:28:33;;;;;;;15.90;9.80;;;;;;;;;;5060387;28;20037;-81
2021/01/07 13:30:59;;;;;;;12.50;8.82;;;;;;;;;;5060570;28;20028;-80
2021/01/07 13:33:26;;;;;;;12.38;8.65;;;;;;;;;;5060562;28;20029;-80
2021/01/07 13:35:57;;;;;;;15.30;9.82;;;;;;;;;;5058949;28;20088;-80
2021/01/07 13:38:23;;;;;;;12.68;8.90;;;;;;;;;;5060350;28;20029;-80
2021/01/07 13:40:49;;;;;;;20.58;12.07;;;;;;;;;;5060246;28;20025;-78
2021/01/07 13:43:16;;;;;;;13.05;9.20;;;;;;;;;;5060179;28;20017;-79
2021/01/07 13:45:43;;;;;;;15.80;9.52;;;;;;;;;;5059097;28;20116;-80
2021/01/07 13:48:12;;;;;;;14.05;9.80;;;;;;;;;;5060171;28;20024;-79
2021/01/07 13:50:40;;;;;;;16.73;8.93;;;;;;;;;;5059883;28;20096;-80
2021/01/07 13:53:08;;;;;;;13.07;8.20;;;;;;;;;;5059980;28;20043;-79
2021/01/07 13:55:35;;;;;;;19.20;10.40;;;;;;;;;;5059805;28;20025;-78
2021/01/07 13:58:01;;;;;;;17.00;9.55;;;;;;;;;;5059985;28;20101;-79
2021/01/07 14:00:27;;;;;;;16.75;10.80;;;;;;;;;;5060050;28;20017;-80
2021/01/07 14:02:53;;;;;;;13.30;8.70;;;;;;;;;;5059746;28;20032;-79
2021/01/07 14:05:21;;;;;;;14.10;8.80;;;;;;;;;;5060010;28;20300;-79
2021/01/07 14:08:09;;;;;;;14.55;8.63;;;;;;;;;;5058552;28;20120;-79
2021/01/07 14:10:39;;;;;;;11.63;8.45;;;;;;;;;;5059570;28;20052;-79
2021/01/07 14:13:06;;;;;;;14.88;8.85;;;;;;;;;;5059605;28;20075;-79
2021/01/07 14:15:33;;;;;;;16.20;10.18;;;;;;;;;;5059663;28;20048;-79
2021/01/07 14:18:02;;;;;;;15.57;9.57;;;;;;;;;;5059502;28;20025;-78
2021/01/07 14:20:28;;;;;;;15.55;9.02;;;;;;;;;;5059753;28;20033;-78
2021/01/07 14:22:54;;;;;;;17.15;8.88;;;;;;;;;;5059332;28;20025;-78